• Join FlightAware (Why Join?)
  • Login
  • US Flag 
09:28AM EST


 

Airport Tracker/Info


-or-


 

Live Flight TrackerFlight Track Log ✈ FIN666 ✈ 29-Mar-2014 ✈ EKCH / CPH - EFHK / HEL

Flight Track Log - Related Links

Times and Time Zones

All times are in EDT time to prevent confusion due to time zone crossing. See the FIN666 flight status page for this flight to view local times or setup timezone preferences in your user account.

Time Position Orientation Groundspeed Altitude Reporting Facility
EDT Latitude Longitude Course Direction KTS MPH feet Rate Location/Type
08:26AM 55.9164 13.2747 49° Northeast  Level Estimated
08:27AM 55.9905 13.4309 50° Northeast  Level Estimated
08:28AM 56.0644 13.5877 50° Northeast  Level Estimated
08:29AM 56.1392 13.7474 50° Northeast  Level Estimated
08:30AM 56.2138 13.9076 50° Northeast  Level Estimated
08:31AM 56.2882 14.0686 50° Northeast  Level Estimated
08:32AM 56.3623 14.2301 50° Northeast  Level Estimated
08:33AM 56.4363 14.3923 50° Northeast  Level Estimated
08:34AM 56.5100 14.5551 51° Northeast  Level Estimated
08:35AM 56.5836 14.7185 51° Northeast  Level Estimated
08:36AM 56.6569 14.8826 51° Northeast  Level Estimated
08:37AM 56.7300 15.0473 51° Northeast  Level Estimated
08:38AM 56.8029 15.2126 51° Northeast  Level Estimated
08:39AM 56.8755 15.3786 51° Northeast  Level Estimated
08:40AM 56.9480 15.5452 51° Northeast  Level Estimated
08:41AM 57.0202 15.7125 52° Northeast  Level Estimated
08:42AM 57.0922 15.8805 52° Northeast  Level Estimated
08:43AM 57.1639 16.0490 52° Northeast  Level Estimated
08:44AM 57.2365 16.2208 52° Northeast  Level Estimated
08:45AM 57.3089 16.3932 52° Northeast  Level Estimated
08:46AM 57.3810 16.5663 52° Northeast  Level Estimated
08:47AM 57.4529 16.7400 52° Northeast  Level Estimated
08:48AM 57.5245 16.9145 53° Northeast  Level Estimated
08:49AM 57.5959 17.0896 53° Northeast  Level Estimated
08:50AM 57.6671 17.2655 53° Northeast  Level Estimated
08:51AM 57.7380 17.4420 53° Northeast  Level Estimated
08:52AM 57.8087 17.6192 53° Northeast  Level Estimated
08:53AM 57.8791 17.7971 53° Northeast  Level Estimated
08:54AM 57.9493 17.9757 53° Northeast  Level Estimated
08:55AM 58.0192 18.1550 54° Northeast  Level Estimated
08:56AM 58.0888 18.3350 54° Northeast  Level Estimated
08:57AM 58.1582 18.5157 54° Northeast  Level Estimated
08:58AM 58.2274 18.6971 54° Northeast  Level Estimated
08:59AM 58.2963 18.8792 54° Northeast  Level Estimated
09:00AM 58.3649 19.0620 54° Northeast  Level Estimated
09:01AM 58.4333 19.2456 55° Northeast  Level Estimated
09:02AM 58.5014 19.4298 55° Northeast  Level Estimated
09:03AM 58.5693 19.6148 55° Northeast  Level Estimated
09:04AM 58.6368 19.8005 55° Northeast  Level Estimated
09:05AM 58.7042 19.9869 55° Northeast  Level Estimated
09:06AM 58.7712 20.1740 55° Northeast  Level Estimated
09:07AM 58.8380 20.3618 55° Northeast  Level Estimated
09:08AM 58.9044 20.5504 56° Northeast  Level Estimated
09:09AM 58.9707 20.7397 56° Northeast  Level Estimated
09:10AM 59.0366 20.9297 56° Northeast  Level Estimated
09:11AM 59.1023 21.1204 56° Northeast  Level Estimated
09:12AM 59.1667 21.3091 56° Northeast  Level Estimated
09:13AM 59.2309 21.4986 56° Northeast  Level Estimated
09:14AM 59.2948 21.6887 57° Northeast  Level Estimated
09:15AM 59.3584 21.8795 57° Northeast  Level Estimated
09:16AM 59.4217 22.0711 57° Northeast  Level Estimated
09:17AM 59.4847 22.2633 57° Northeast  Level Estimated
09:18AM 59.5475 22.4563 57° Northeast  Level Estimated
09:19AM 59.6100 22.6500 57° Northeast  Level Estimated
09:20AM 59.6722 22.8444 58° Northeast  Level Estimated
09:21AM 59.7341 23.0396 58° Northeast  Level Estimated
09:22AM 59.7957 23.2354 58° Northeast  Level Estimated
09:23AM 59.8570 23.4320 58° Northeast  Level Estimated
09:24AM 59.9180 23.6293 58° Northeast  Level Estimated
09:25AM 59.9788 23.8274 58° Northeast  Level Estimated
09:26AM 60.0392 24.0261 59° Northeast  Level Estimated
09:27AM 60.0993 24.2256 59° Northeast  Level Estimated
09:28AM 60.1591 24.4258 59° Northeast  Level Estimated
09:29AM 60.2187 24.6268 59° Northeast  Level Estimated
09:30AM 60.2779 24.8285 59° Northeast  Level Estimated
09:31AM 60.3172 24.9633 59° Northeast  Level Estimated
09:32AM 60.3172 24.9633 North  Level Estimated
09:33AM 60.3172 24.9633 North  Level Estimated
09:34AM 60.3172 24.9633 North  Level Estimated
09:35AM 60.3172 24.9633 North  Level Estimated
09:36AM 60.3172 24.9633 North  Level Estimated
09:37AM 60.3172 24.9633 North  Level Estimated
09:38AM 60.3172 24.9633 North  Level Estimated
09:39AM 60.3172 24.9633 North  Level Estimated
09:40AM 60.3172 24.9633 North  Level Estimated